createdAt,value
2019-04-11T00:01:16.332Z,17.23
2019-04-11T00:03:45.944Z,12.98
2019-04-11T00:06:15.083Z,17.42
2019-04-11T00:08:44.039Z,13.13
2019-04-11T00:11:13.496Z,17.05
2019-04-11T00:13:43.185Z,14.47
2019-04-11T00:16:12.997Z,15.08
2019-04-11T00:18:42.907Z,19.67
2019-04-11T00:21:12.822Z,18.82
2019-04-11T00:23:42.419Z,16.12
2019-04-11T00:26:11.833Z,15.45
2019-04-11T00:28:41.609Z,15.30
2019-04-11T00:31:10.470Z,15.90
2019-04-11T00:33:40.329Z,15.55
2019-04-11T00:36:10.301Z,17.85
2019-04-11T00:38:40.209Z,18.23
2019-04-11T00:41:09.971Z,14.40
2019-04-11T00:43:41.969Z,18.12
2019-04-11T00:46:09.927Z,15.43
2019-04-11T00:48:38.766Z,13.88
2019-04-11T00:51:07.733Z,16.32
2019-04-11T00:53:36.538Z,18.67
2019-04-11T00:56:06.223Z,23.35
2019-04-11T00:58:36.041Z,16.42
2019-04-11T01:01:04.987Z,17.12
2019-04-11T01:03:33.943Z,19.25
2019-04-11T01:06:03.425Z,16.07
2019-04-11T01:08:32.568Z,18.12
2019-04-11T01:11:01.240Z,18.80
2019-04-11T01:13:40.591Z,15.10
2019-04-11T01:16:05.127Z,19.65
2019-04-11T01:21:06.219Z,19.48
2019-04-11T01:23:35.367Z,20.90
2019-04-11T01:26:05.217Z,19.07
2019-04-11T01:28:34.611Z,17.57
2019-04-11T01:31:07.309Z,20.95
2019-04-11T01:33:36.487Z,20.55
2019-04-11T01:36:05.287Z,16.97
2019-04-11T01:38:38.696Z,18.90
2019-04-11T01:41:10.020Z,19.57
2019-04-11T01:43:39.866Z,20.77
2019-04-11T01:46:09.707Z,17.70
2019-04-11T01:48:55.639Z,18.35
2019-04-11T01:51:25.376Z,19.45
2019-04-11T01:53:55.344Z,18.17
2019-04-11T01:56:25.232Z,21.55
2019-04-11T01:58:55.127Z,20.80
2019-04-11T02:01:32.618Z,16.97
2019-04-11T02:04:07.755Z,21.33
2019-04-11T02:06:36.481Z,19.42
2019-04-11T02:09:09.532Z,21.07
2019-04-11T02:14:13.548Z,15.38
2019-04-11T02:16:36.950Z,18.85
2019-04-11T02:19:05.845Z,21.57
2019-04-11T02:21:35.891Z,19.50
2019-04-11T02:24:21.059Z,18.25
2019-04-11T02:27:24.762Z,17.10
2019-04-11T02:29:55.157Z,20.20
2019-04-11T02:32:27.025Z,17.40
2019-04-11T02:34:58.929Z,16.60
2019-04-11T02:37:26.931Z,18.50
2019-04-11T02:39:57.484Z,17.52
2019-04-11T02:42:27.600Z,19.62
2019-04-11T02:45:13.865Z,22.60
2019-04-11T02:47:32.616Z,17.67
2019-04-11T02:49:59.292Z,18.92
2019-04-11T02:52:28.380Z,20.70
2019-04-11T02:55:00.778Z,17.35
2019-04-11T02:57:30.171Z,20.88
2019-04-11T02:59:59.875Z,19.85
2019-04-11T03:02:30.886Z,20.45
2019-04-11T03:05:00.516Z,20.62
2019-04-11T03:07:30.080Z,20.88
2019-04-11T03:10:00.296Z,18.50
2019-04-11T03:12:31.342Z,19.17
2019-04-11T03:15:14.729Z,22.62
2019-04-11T03:17:36.729Z,23.52
2019-04-11T03:20:13.060Z,20.02
2019-04-11T03:22:34.493Z,21.25
2019-04-11T03:25:05.415Z,20.20
2019-04-11T03:27:34.938Z,19.30
2019-04-11T03:30:09.851Z,20.92
2019-04-11T03:33:25.254Z,20.17
2019-04-11T03:36:01.097Z,19.98
2019-04-11T03:38:00.405Z,17.67
2019-04-11T03:40:28.740Z,18.92
2019-04-11T03:42:58.628Z,24.63
2019-04-11T03:45:34.735Z,20.95
2019-04-11T03:47:59.521Z,24.07
2019-04-11T03:50:16.562Z,18.92
2019-04-11T03:52:45.033Z,22.13
2019-04-11T03:55:15.226Z,24.37
2019-04-11T03:57:44.669Z,34.08
2019-04-11T04:00:15.393Z,23.83
2019-04-11T04:02:46.796Z,20.52
2019-04-11T04:05:17.744Z,25.95
2019-04-11T04:07:48.852Z,27.42
2019-04-11T04:10:20.406Z,35.13
2019-04-11T04:12:51.621Z,29.85
2019-04-11T04:15:44.320Z,29.27
2019-04-11T04:18:16.413Z,57.43
2019-04-11T04:21:08.403Z,76.22
2019-04-11T04:23:40.905Z,53.55
2019-04-11T04:28:41.084Z,45.58
2019-04-11T04:31:11.727Z,28.67
2019-04-11T04:33:42.967Z,28.23
2019-04-11T04:36:13.845Z,25.55
2019-04-11T04:38:44.529Z,28.10
2019-04-11T04:41:26.792Z,24.67
2019-04-11T04:43:48.120Z,28.95
2019-04-11T04:46:35.192Z,29.82
2019-04-11T04:48:49.431Z,28.57
2019-04-11T04:51:19.967Z,24.80
2019-04-11T04:53:49.951Z,35.03
2019-04-11T04:56:24.126Z,25.40
2019-04-11T04:58:50.765Z,27.25
2019-04-11T05:01:21.227Z,25.68
2019-04-11T05:03:50.979Z,43.55
2019-04-11T05:06:20.704Z,30.75
2019-04-11T05:08:51.279Z,36.00
2019-04-11T05:11:20.133Z,30.05
2019-04-11T05:13:51.753Z,29.07
2019-04-11T05:16:20.036Z,35.10
2019-04-11T05:18:48.985Z,43.55
2019-04-11T05:21:21.197Z,48.40
2019-04-11T05:23:50.117Z,43.83
2019-04-11T05:26:19.372Z,34.35
2019-04-11T05:28:49.021Z,28.23
2019-04-11T05:31:20.540Z,29.67
2019-04-11T05:33:49.798Z,32.38
2019-04-11T05:36:18.748Z,35.68
2019-04-11T05:38:48.543Z,27.42
2019-04-11T05:41:19.157Z,32.25
2019-04-11T05:43:47.802Z,29.60
2019-04-11T05:46:31.406Z,30.70
2019-04-11T05:49:09.219Z,28.30
2019-04-11T05:51:42.578Z,27.25
2019-04-11T05:54:09.530Z,25.77
2019-04-11T05:56:39.160Z,23.67
2019-04-11T05:59:17.213Z,22.27
2019-04-11T06:01:52.648Z,18.00
2019-04-11T06:04:30.134Z,20.40
2019-04-11T06:07:18.835Z,19.52
2019-04-11T06:09:49.826Z,18.45
2019-04-11T06:12:41.403Z,19.10
2019-04-11T06:15:19.636Z,20.60
2019-04-11T06:17:48.242Z,17.32
2019-04-11T06:20:25.093Z,22.95
2019-04-11T06:23:09.954Z,20.77
2019-04-11T06:25:49.197Z,16.80
2019-04-11T06:28:22.776Z,23.30
2019-04-11T06:31:09.738Z,20.40
2019-04-11T06:33:42.911Z,23.27
2019-04-11T06:39:12.808Z,16.45
2019-04-11T06:42:04.837Z,16.97
2019-04-11T06:44:41.754Z,17.07
2019-04-11T06:47:29.171Z,21.75
2019-04-11T06:50:15.947Z,20.43
2019-04-11T06:52:45.360Z,15.65
2019-04-11T06:55:41.240Z,17.77
2019-04-11T06:58:15.003Z,15.75
2019-04-11T07:00:47.566Z,18.23
2019-04-11T07:03:23.123Z,16.70
2019-04-11T07:05:50.975Z,17.55
2019-04-11T07:08:22.300Z,17.05
2019-04-11T07:10:56.613Z,15.05
2019-04-11T07:13:32.891Z,13.80
2019-04-11T07:16:02.698Z,13.10
2019-04-11T07:18:50.589Z,15.88
2019-04-11T07:21:21.230Z,17.62
2019-04-11T07:24:07.578Z,13.15
2019-04-11T07:26:43.559Z,15.75
2019-04-11T07:29:31.518Z,15.15
2019-04-11T07:32:18.040Z,15.00
2019-04-11T07:35:04.955Z,16.42
2019-04-11T07:37:36.736Z,16.27
2019-04-11T07:40:29.444Z,15.85
2019-04-11T07:43:14.973Z,13.03
2019-04-11T07:46:00.422Z,15.25
2019-04-11T07:48:38.108Z,13.50
2019-04-11T07:51:27.560Z,16.07
2019-04-11T07:53:57.824Z,14.50
2019-04-11T07:56:37.616Z,11.45
2019-04-11T07:59:10.726Z,10.60
2019-04-11T08:04:58.317Z,11.28
2019-04-11T08:07:46.880Z,13.85
2019-04-11T08:10:20.937Z,12.28
2019-04-11T08:12:49.900Z,12.95
2019-04-11T08:15:39.881Z,14.83
2019-04-11T08:18:16.635Z,15.00
2019-04-11T08:21:08.019Z,12.80
2019-04-11T08:23:37.861Z,13.35
2019-04-11T08:26:24.165Z,11.88
2019-04-11T08:29:02.478Z,14.40
2019-04-11T08:31:46.638Z,12.80
2019-04-11T08:34:17.247Z,10.72
2019-04-11T08:37:17.686Z,11.57
2019-04-11T08:39:49.774Z,10.72
2019-04-11T08:42:37.759Z,10.23
2019-04-11T08:45:09.876Z,11.97
2019-04-11T08:47:54.513Z,9.90
2019-04-11T08:50:23.652Z,20.70
2019-04-11T08:53:02.602Z,11.10
2019-04-11T08:55:55.740Z,9.78
2019-04-11T08:58:38.487Z,9.08
2019-04-11T09:01:08.762Z,10.18
2019-04-11T09:04:10.186Z,10.35
2019-04-11T09:06:38.880Z,10.95
2019-04-11T09:09:39.891Z,14.10
2019-04-11T09:12:12.097Z,9.65
2019-04-11T09:15:00.191Z,9.23
2019-04-11T09:17:32.550Z,9.70
2019-04-11T09:20:21.445Z,9.45
2019-04-11T09:23:07.204Z,10.70
2019-04-11T09:25:55.386Z,9.58
2019-04-11T09:28:35.907Z,9.90
2019-04-11T09:31:42.168Z,10.45
2019-04-11T09:34:30.407Z,14.55
2019-04-11T09:37:05.243Z,8.93
2019-04-11T09:39:53.104Z,8.65
2019-04-11T09:42:40.600Z,10.93
2019-04-11T09:45:24.129Z,10.43
2019-04-11T09:50:48.975Z,13.05
2019-04-11T09:53:19.158Z,8.70
2019-04-11T09:56:06.837Z,8.48
2019-04-11T09:58:35.784Z,8.00
2019-04-11T10:01:42.987Z,9.80
2019-04-11T10:04:12.289Z,12.05
2019-04-11T10:07:01.221Z,8.85
2019-04-11T10:09:42.639Z,10.43
2019-04-11T10:12:29.694Z,9.23
2019-04-11T10:14:58.712Z,8.43
2019-04-11T10:18:01.565Z,11.73
2019-04-11T10:20:30.821Z,10.13
2019-04-11T10:23:18.826Z,9.90
2019-04-11T10:25:51.824Z,8.85
2019-04-11T10:28:37.654Z,11.00
2019-04-11T10:31:08.643Z,10.53
2019-04-11T10:33:53.242Z,9.33
2019-04-11T10:36:34.826Z,10.88
2019-04-11T10:39:18.629Z,9.70
2019-04-11T10:41:50.791Z,10.28
2019-04-11T10:44:28.147Z,11.28
2019-04-11T10:47:08.379Z,11.93
2019-04-11T10:49:54.673Z,9.73
2019-04-11T10:52:28.924Z,10.40
2019-04-11T10:55:09.831Z,11.53
2019-04-11T10:57:44.460Z,12.25
2019-04-11T11:00:20.927Z,10.08
2019-04-11T11:03:01.967Z,10.40
2019-04-11T11:05:32.522Z,10.03
2019-04-11T11:08:07.043Z,8.95
2019-04-11T11:10:36.959Z,8.25
2019-04-11T11:13:23.640Z,8.45
2019-04-11T11:15:56.041Z,9.50
2019-04-11T11:19:03.605Z,8.83
2019-04-11T11:21:13.901Z,8.78
2019-04-11T11:24:00.853Z,9.53
2019-04-11T11:26:37.187Z,9.60
2019-04-11T11:29:24.323Z,10.95
2019-04-11T11:31:59.328Z,9.00
2019-04-11T11:34:32.662Z,10.88
2019-04-11T11:37:17.872Z,11.45
2019-04-11T11:40:10.570Z,12.58
2019-04-11T11:42:50.575Z,10.05
2019-04-11T11:45:27.718Z,9.48
2019-04-11T11:48:13.713Z,10.93
2019-04-11T11:50:39.590Z,7.65
2019-04-11T11:53:31.380Z,13.72
2019-04-11T11:56:00.472Z,8.18
2019-04-11T11:59:01.106Z,8.78
2019-04-11T12:01:31.543Z,10.23
2019-04-11T12:04:24.261Z,10.08
2019-04-11T12:06:59.879Z,11.65
2019-04-11T12:09:48.888Z,9.20
2019-04-11T12:12:22.461Z,8.63
2019-04-11T12:15:14.213Z,11.05
2019-04-11T12:18:09.390Z,11.68
2019-04-11T12:20:44.843Z,10.43
2019-04-11T12:23:57.213Z,11.22
2019-04-11T12:26:44.708Z,12.50
2019-04-11T12:29:32.188Z,14.03
2019-04-11T12:32:08.342Z,8.60
2019-04-11T12:35:15.671Z,9.53
2019-04-11T12:37:57.816Z,7.37
2019-04-11T12:40:45.150Z,9.53
2019-04-11T12:43:18.778Z,9.93
2019-04-11T12:46:07.541Z,11.38
2019-04-11T12:48:42.202Z,8.13
2019-04-11T12:51:38.149Z,10.28
2019-04-11T12:54:12.396Z,8.40
2019-04-11T12:57:01.384Z,9.28
2019-04-11T12:59:31.212Z,10.03
2019-04-11T13:02:32.401Z,9.90
2019-04-11T13:05:12.989Z,8.53
2019-04-11T13:08:15.528Z,11.78
2019-04-11T13:10:46.572Z,9.78
2019-04-11T13:13:32.987Z,9.60
2019-04-11T13:16:13.113Z,9.03
2019-04-11T13:19:00.871Z,9.55
2019-04-11T13:22:21.079Z,10.43
2019-04-11T13:25:11.766Z,11.73
2019-04-11T13:27:53.478Z,8.55
2019-04-11T13:30:43.868Z,8.20
2019-04-11T13:33:26.280Z,8.53
2019-04-11T13:36:19.330Z,9.15
2019-04-11T13:38:51.938Z,8.00
2019-04-11T13:41:35.476Z,8.55
2019-04-11T13:47:06.311Z,9.55
2019-04-11T13:49:46.060Z,12.10
2019-04-11T13:52:43.384Z,9.28
2019-04-11T13:55:37.747Z,10.72
2019-04-11T13:58:24.729Z,8.70
2019-04-11T14:01:03.317Z,9.30
2019-04-11T14:04:08.700Z,7.12
2019-04-11T14:06:38.153Z,11.08
2019-04-11T14:09:33.485Z,9.88
2019-04-11T14:12:06.802Z,10.23
2019-04-11T14:17:17.349Z,7.95
2019-04-11T14:20:12.595Z,6.10
2019-04-11T14:22:56.628Z,9.08
2019-04-11T14:25:43.294Z,7.58
2019-04-11T14:28:12.752Z,7.53
2019-04-11T14:30:51.661Z,7.72
2019-04-11T14:33:17.810Z,8.05
2019-04-11T14:36:11.544Z,6.90
2019-04-11T14:38:46.478Z,11.05
2019-04-11T14:41:30.962Z,7.33
2019-04-11T14:44:02.171Z,7.35
2019-04-11T14:46:49.151Z,10.95
2019-04-11T14:49:19.209Z,8.05
2019-04-11T14:52:07.161Z,13.58
2019-04-11T14:54:49.272Z,8.70
2019-04-11T14:57:55.687Z,10.75
2019-04-11T15:00:44.488Z,9.50
2019-04-11T15:03:32.488Z,8.05
2019-04-11T15:06:23.427Z,10.13
2019-04-11T15:09:17.698Z,7.17
2019-04-11T15:12:17.679Z,8.88
2019-04-11T15:15:22.457Z,11.40
2019-04-11T15:17:55.561Z,8.68
2019-04-11T15:20:53.823Z,11.93
2019-04-11T15:23:22.356Z,9.78
2019-04-11T15:26:10.103Z,14.58
2019-04-11T15:28:50.697Z,9.05
2019-04-11T15:31:47.823Z,9.08
2019-04-11T15:34:35.554Z,7.25
2019-04-11T15:37:21.942Z,6.97
2019-04-11T15:40:08.573Z,8.75
2019-04-11T15:42:57.037Z,8.00
2019-04-11T15:45:32.718Z,8.05
2019-04-11T15:48:35.867Z,6.33
2019-04-11T15:51:23.509Z,6.10
2019-04-11T15:54:26.700Z,7.95
2019-04-11T15:57:19.672Z,8.30
2019-04-11T16:00:07.369Z,8.43
2019-04-11T16:03:01.497Z,7.25
2019-04-11T16:05:49.215Z,8.03
2019-04-11T16:08:29.298Z,7.53
2019-04-11T16:11:15.885Z,8.60
2019-04-11T16:14:02.600Z,15.55
2019-04-11T16:16:48.586Z,7.65
2019-04-11T16:19:40.336Z,9.63
2019-04-11T16:22:26.743Z,11.28
2019-04-11T16:24:58.337Z,7.60
2019-04-11T16:27:45.244Z,6.95
2019-04-11T16:30:15.438Z,7.80
2019-04-11T16:32:47.883Z,8.83
2019-04-11T16:35:23.807Z,8.23
2019-04-11T16:38:00.361Z,10.55
2019-04-11T16:40:54.112Z,12.23
2019-04-11T16:43:24.481Z,8.33
2019-04-11T16:46:11.221Z,8.70
2019-04-11T16:48:39.890Z,8.23
2019-04-11T16:51:08.541Z,7.28
2019-04-11T16:53:37.238Z,11.60
2019-04-11T16:56:05.919Z,10.25
2019-04-11T16:58:34.580Z,10.28
2019-04-11T17:01:03.265Z,10.90
2019-04-11T17:03:31.917Z,7.83
2019-04-11T17:06:14.793Z,9.95
2019-04-11T17:08:51.806Z,8.68
2019-04-11T17:11:20.928Z,13.05
2019-04-11T17:13:49.579Z,12.82
2019-04-11T17:16:21.378Z,10.18
2019-04-11T17:18:50.075Z,10.23
2019-04-11T17:21:18.725Z,7.47
2019-04-11T17:23:47.829Z,8.35
2019-04-11T17:26:16.916Z,9.13
2019-04-11T17:28:45.599Z,15.18
2019-04-11T17:31:14.272Z,9.68
2019-04-11T17:33:42.999Z,11.78
2019-04-11T17:36:11.632Z,8.03
2019-04-11T17:38:40.294Z,8.48
2019-04-11T17:41:11.969Z,9.28
2019-04-11T17:43:42.012Z,8.90
2019-04-11T17:46:09.819Z,8.30
2019-04-11T17:48:38.486Z,6.58
2019-04-11T17:51:09.513Z,8.60
2019-04-11T17:53:37.706Z,7.78
2019-04-11T17:56:06.369Z,9.40
2019-04-11T17:58:35.104Z,10.80
2019-04-11T18:01:06.030Z,11.15
2019-04-11T18:03:34.783Z,9.00
2019-04-11T18:06:03.472Z,8.08
2019-04-11T18:08:32.166Z,7.45
2019-04-11T18:11:00.856Z,8.25
2019-04-11T18:13:31.575Z,6.28
2019-04-11T18:16:01.218Z,8.93
2019-04-11T18:18:34.944Z,8.50
2019-04-11T18:21:00.850Z,11.80
2019-04-11T18:23:29.614Z,8.38
2019-04-11T18:25:58.653Z,9.50
2019-04-11T18:28:27.685Z,7.37
2019-04-11T18:30:56.592Z,8.68
2019-04-11T18:33:25.327Z,8.95
2019-04-11T18:35:53.989Z,5.47
2019-04-11T18:38:22.942Z,8.13
2019-04-11T18:40:51.702Z,8.20
2019-04-11T18:43:20.443Z,5.78
2019-04-11T18:45:49.444Z,5.83
2019-04-11T18:48:18.239Z,5.62
2019-04-11T18:50:47.295Z,7.00
2019-04-11T18:53:15.986Z,5.62
2019-04-11T18:55:44.662Z,5.33
2019-04-11T18:58:13.340Z,10.58
2019-04-11T19:00:41.999Z,4.72
2019-04-11T19:03:10.889Z,4.90
2019-04-11T19:05:42.818Z,6.20
2019-04-11T19:08:12.960Z,5.08
2019-04-11T19:10:42.886Z,3.50
2019-04-11T19:13:11.750Z,4.15
2019-04-11T19:15:40.408Z,7.15
2019-04-11T19:18:09.237Z,5.37
2019-04-11T19:20:37.926Z,6.20
2019-04-11T19:23:07.930Z,3.75
2019-04-11T19:25:37.212Z,9.78
2019-04-11T19:28:05.907Z,3.67
2019-04-11T19:30:35.026Z,4.58
2019-04-11T19:33:03.753Z,8.48
2019-04-11T19:35:32.429Z,5.25
2019-04-11T19:38:01.114Z,6.45
2019-04-11T19:40:30.597Z,3.40
2019-04-11T19:42:59.319Z,5.80
2019-04-11T19:45:27.966Z,4.50
2019-04-11T19:47:56.653Z,4.55
2019-04-11T19:50:26.704Z,6.90
2019-04-11T19:52:55.724Z,3.98
2019-04-11T19:55:41.390Z,5.33
2019-04-11T19:58:10.061Z,6.45
2019-04-11T20:00:39.159Z,4.22
2019-04-11T20:03:08.552Z,4.80
2019-04-11T20:05:37.636Z,3.67
2019-04-11T20:08:06.294Z,4.25
2019-04-11T20:10:34.983Z,4.10
2019-04-11T20:13:05.438Z,4.20
2019-04-11T20:15:37.250Z,4.75
2019-04-11T20:18:04.506Z,3.92
2019-04-11T20:20:36.887Z,3.92
2019-04-11T20:23:03.568Z,4.55
2019-04-11T20:25:32.665Z,8.00
2019-04-11T20:28:01.349Z,3.40
2019-04-11T20:30:30.057Z,3.12
2019-04-11T20:33:02.922Z,4.30
2019-04-11T20:35:29.876Z,3.62
2019-04-11T20:37:58.554Z,3.40
2019-04-11T20:40:27.210Z,4.20
2019-04-11T20:42:57.825Z,6.35
2019-04-11T20:45:28.697Z,4.22
2019-04-11T20:48:00.284Z,6.08
2019-04-11T20:50:29.333Z,2.58
2019-04-11T20:53:00.491Z,3.65
2019-04-11T20:55:28.379Z,4.10
2019-04-11T20:57:57.046Z,4.10
2019-04-11T21:00:25.852Z,6.17
2019-04-11T21:02:58.050Z,3.33
2019-04-11T21:05:24.991Z,2.90
2019-04-11T21:07:54.026Z,4.20
2019-04-11T21:10:23.059Z,4.10
2019-04-11T21:12:51.716Z,4.25
2019-04-11T21:15:20.701Z,4.78
2019-04-11T21:17:49.376Z,4.15
2019-04-11T21:20:18.029Z,4.05
2019-04-11T21:22:46.714Z,4.17
2019-04-11T21:25:15.766Z,4.20
2019-04-11T21:27:44.767Z,3.50
2019-04-11T21:30:14.073Z,8.08
2019-04-11T21:32:42.753Z,2.92
2019-04-11T21:35:11.779Z,3.58
2019-04-11T21:37:40.801Z,3.47
2019-04-11T21:40:10.024Z,2.83
2019-04-11T21:42:39.115Z,4.45
2019-04-11T21:45:07.854Z,7.22
2019-04-11T21:47:37.872Z,3.00
2019-04-11T21:50:09.612Z,3.33
2019-04-11T21:52:43.360Z,4.50
2019-04-11T21:55:09.312Z,4.17
2019-04-11T21:57:38.043Z,3.40
2019-04-11T22:00:13.523Z,3.47
2019-04-11T22:02:42.540Z,5.42
2019-04-11T22:05:11.480Z,4.15
2019-04-11T22:07:40.180Z,3.02
2019-04-11T22:10:09.641Z,5.17
2019-04-11T22:12:40.080Z,4.25
2019-04-11T22:15:11.980Z,3.30
2019-04-11T22:17:42.946Z,3.70
2019-04-11T22:20:11.093Z,2.52
2019-04-11T22:22:40.073Z,4.30
2019-04-11T22:25:09.100Z,3.50
2019-04-11T22:27:38.144Z,3.33
2019-04-11T22:30:08.065Z,5.53
2019-04-11T22:32:36.780Z,2.98
2019-04-11T22:35:05.941Z,3.83
2019-04-11T22:37:34.667Z,5.62
2019-04-11T22:40:04.052Z,3.27
2019-04-11T22:42:32.718Z,6.40
2019-04-11T22:45:01.386Z,5.58
2019-04-11T22:47:30.080Z,4.60
2019-04-11T22:49:58.741Z,5.17
2019-04-11T22:52:28.575Z,3.15
2019-04-11T22:54:57.390Z,3.40
2019-04-11T22:57:26.326Z,3.50
2019-04-11T22:59:55.779Z,3.10
2019-04-11T23:02:36.265Z,6.72
2019-04-11T23:05:05.484Z,4.78
2019-04-11T23:07:34.486Z,6.25
2019-04-11T23:10:04.108Z,4.03
2019-04-11T23:12:33.120Z,5.08
2019-04-11T23:15:01.779Z,4.12
2019-04-11T23:17:30.448Z,3.87
2019-04-11T23:19:59.128Z,4.85
2019-04-11T23:22:27.816Z,5.90
2019-04-11T23:24:56.450Z,5.08
2019-04-11T23:27:31.192Z,5.42
2019-04-11T23:30:11.255Z,5.28
2019-04-11T23:32:41.205Z,3.62
2019-04-11T23:35:13.649Z,4.78
2019-04-11T23:37:52.159Z,5.80
2019-04-11T23:40:25.286Z,4.15
2019-04-11T23:42:59.410Z,5.65
2019-04-11T23:45:51.201Z,4.12
2019-04-11T23:48:24.070Z,6.10
2019-04-11T23:50:55.878Z,4.72
2019-04-11T23:53:30.290Z,3.52
2019-04-11T23:56:03.975Z,4.30
2019-04-11T23:58:39.110Z,5.08
